Time;durP1;ratioP1;P1;durP2;ratioP2;P2;SDS_P1;SDS_P2;PMS_P1;PMS_P2;Temp;Humidity;BMP_temperature;BMP_pressure;BME280_temperature;BME280_humidity;BME280_pressure;Samples;Min_cycle;Max_cycle;Signal;HPM_P1;HPM_P2
2022/06/03 00:01:58;;;;;;;7.28;5.03;;;13.90;99.90;;;;;;5071057;28;20027;-74
2022/06/03 00:04:36;;;;;;;8.00;5.13;;;13.90;99.90;;;;;;5071096;28;20111;-74
2022/06/03 00:07:32;;;;;;;8.00;4.70;;;13.90;99.90;;;;;;5070834;28;20029;-75
2022/06/03 00:10:06;;;;;;;8.43;4.95;;;13.90;99.90;;;;;;5052930;28;20028;-73
2022/06/03 00:12:46;;;;;;;11.23;5.00;;;13.90;99.90;;;;;;5070890;28;20036;-74
2022/06/03 00:15:18;;;;;;;6.60;4.95;;;13.90;99.90;;;;;;5070696;28;20431;-73
2022/06/03 00:17:55;;;;;;;8.18;5.47;;;13.90;99.90;;;;;;5070902;28;20416;-73
2022/06/03 00:20:41;;;;;;;9.43;5.30;;;14.00;99.90;;;;;;5070624;28;20040;-73
2022/06/03 00:23:32;;;;;;;7.35;4.70;;;14.00;99.90;;;;;;5070607;28;20060;-73
2022/06/03 00:26:00;;;;;;;7.95;5.35;;;14.00;99.90;;;;;;5069606;28;20032;-73
2022/06/03 00:28:29;;;;;;;9.98;4.93;;;14.00;99.90;;;;;;5070707;28;20036;-74
2022/06/03 00:31:43;;;;;;;7.63;4.88;;;14.00;99.90;;;;;;5070496;28;20099;-73
2022/06/03 00:34:25;;;;;;;7.70;5.30;;;14.00;99.90;;;;;;5041669;28;20435;-73
2022/06/03 00:37:11;;;;;;;8.10;4.97;;;14.00;99.90;;;;;;5058953;28;20332;-73
2022/06/03 00:39:58;;;;;;;6.75;5.10;;;14.00;99.90;;;;;;5069685;28;20037;-73
2022/06/03 00:42:35;;;;;;;6.97;5.00;;;14.00;99.90;;;;;;5067463;28;20028;-74
2022/06/03 00:45:45;;;;;;;9.15;4.82;;;14.00;99.90;;;;;;5070114;28;20020;-75
2022/06/03 00:48:38;;;;;;;6.82;4.60;;;14.00;99.90;;;;;;5070154;28;20024;-74
2022/06/03 00:51:13;;;;;;;8.07;4.78;;;14.00;99.90;;;;;;5069919;28;20034;-74
2022/06/03 00:53:39;;;;;;;8.20;4.95;;;13.90;99.90;;;;;;5043976;28;20024;-74
2022/06/03 00:56:33;;;;;;;8.55;5.03;;;13.90;99.90;;;;;;5070081;28;20025;-74
2022/06/03 00:58:59;;;;;;;8.63;4.50;;;13.90;99.90;;;;;;5070702;28;20062;-74
2022/06/03 01:01:24;;;;;;;8.68;4.68;;;13.90;99.90;;;;;;5069698;28;20480;-73
2022/06/03 01:03:58;;;;;;;5.07;4.57;;;13.90;99.90;;;;;;5069918;28;20089;-74
2022/06/03 01:06:43;;;;;;;7.97;4.47;;;13.90;99.90;;;;;;5052171;28;20073;-74
2022/06/03 01:09:27;;;;;;;7.47;4.63;;;13.90;99.90;;;;;;5070110;28;20541;-74
2022/06/03 01:12:25;;;;;;;6.50;4.38;;;13.80;99.90;;;;;;5069874;28;20314;-73
2022/06/03 01:15:08;;;;;;;7.65;4.07;;;13.80;99.90;;;;;;5037068;28;20068;-74
2022/06/03 01:17:43;;;;;;;6.05;4.90;;;13.80;99.90;;;;;;5070019;28;20103;-74
2022/06/03 01:20:29;;;;;;;9.48;4.70;;;13.80;99.90;;;;;;5070134;28;20154;-73
2022/06/03 01:23:25;;;;;;;7.63;4.32;;;13.70;99.90;;;;;;5070125;28;20064;-73
2022/06/03 01:26:27;;;;;;;6.05;4.18;;;13.70;99.90;;;;;;5069711;28;20388;-73
2022/06/03 01:29:04;;;;;;;7.82;4.25;;;13.70;99.90;;;;;;5069930;28;20029;-74
2022/06/03 01:31:49;;;;;;;8.10;4.13;;;13.70;99.90;;;;;;5069552;28;20128;-73
2022/06/03 01:34:14;;;;;;;6.80;4.53;;;13.70;99.90;;;;;;5070317;28;20086;-74
2022/06/03 01:36:46;;;;;;;5.20;4.40;;;13.70;99.90;;;;;;5069417;28;20024;-73
2022/06/03 01:39:30;;;;;;;8.20;4.55;;;13.70;99.90;;;;;;5069709;28;20031;-74
2022/06/03 01:42:15;;;;;;;8.93;4.65;;;13.60;99.90;;;;;;5043586;28;20438;-73
2022/06/03 01:45:17;;;;;;;5.50;4.22;;;13.70;99.90;;;;;;5069730;28;20496;-73
2022/06/03 01:48:34;;;;;;;6.68;4.13;;;13.60;99.90;;;;;;5067081;28;20029;-73
2022/06/03 01:51:17;;;;;;;6.35;3.95;;;13.70;99.90;;;;;;4966197;28;20102;-74
2022/06/03 01:54:17;;;;;;;7.03;4.15;;;13.60;99.90;;;;;;4949305;28;20051;-75
2022/06/03 01:57:01;;;;;;;7.75;4.50;;;13.60;99.90;;;;;;4963867;28;20035;-74
2022/06/03 01:59:50;;;;;;;8.30;4.75;;;13.70;99.90;;;;;;4968768;28;20026;-73
2022/06/03 02:03:05;;;;;;;7.18;4.38;;;13.60;99.90;;;;;;4968312;28;20078;-74
2022/06/03 02:05:59;;;;;;;5.65;4.28;;;13.60;99.90;;;;;;4960226;28;20054;-75
2022/06/03 02:08:59;;;;;;;5.75;4.00;;;13.60;99.90;;;;;;4947197;28;20038;-73
2022/06/03 02:11:52;;;;;;;6.22;4.45;;;13.60;99.90;;;;;;4951918;28;20058;-73
2022/06/03 02:14:41;;;;;;;5.30;3.90;;;13.60;99.90;;;;;;4950123;28;20043;-74
2022/06/03 02:17:25;;;;;;;7.45;3.95;;;13.60;99.90;;;;;;4938926;28;20035;-75
2022/06/03 02:20:00;;;;;;;10.07;4.57;;;13.60;99.90;;;;;;4965040;28;20055;-74
2022/06/03 02:22:44;;;;;;;5.70;4.25;;;13.50;99.90;;;;;;4950463;28;20517;-76
2022/06/03 02:25:35;;;;;;;6.63;4.30;;;13.50;99.90;;;;;;4971917;28;20046;-75
2022/06/03 02:28:21;;;;;;;7.65;4.03;;;13.50;99.90;;;;;;5059142;28;20380;-74
2022/06/03 02:31:00;;;;;;;16.25;4.00;;;13.50;99.90;;;;;;5072959;28;20430;-75
2022/06/03 02:33:47;;;;;;;6.20;4.15;;;13.50;99.90;;;;;;5072923;28;20070;-74
2022/06/03 02:36:58;;;;;;;7.05;4.20;;;13.50;99.90;;;;;;5073057;28;20028;-75
2022/06/03 02:39:42;;;;;;;9.65;4.10;;;13.50;99.90;;;;;;5072664;28;20024;-73
2022/06/03 02:42:17;;;;;;;5.93;4.43;;;13.40;99.90;;;;;;5072868;28;20028;-74
2022/06/03 02:45:04;;;;;;;9.63;4.57;;;13.40;99.90;;;;;;5073337;28;20035;-75
2022/06/03 02:47:36;;;;;;;6.30;3.88;;;13.50;99.90;;;;;;5073036;28;20025;-74
2022/06/03 02:50:09;;;;;;;5.35;3.88;;;13.40;99.90;;;;;;5073191;28;20099;-75
2022/06/03 02:53:12;;;;;;;6.47;4.00;;;13.40;99.90;;;;;;5055140;28;20027;-74
2022/06/03 02:55:50;;;;;;;6.57;3.97;;;13.40;99.90;;;;;;5063579;28;20350;-74
2022/06/03 02:58:34;;;;;;;6.03;3.97;;;13.40;99.90;;;;;;5073090;28;20652;-74
2022/06/03 03:01:33;;;;;;;7.22;3.92;;;13.40;99.90;;;;;;5072681;28;20059;-74
2022/06/03 03:04:37;;;;;;;8.70;3.90;;;13.40;99.90;;;;;;5072559;28;20025;-74
2022/06/03 03:07:12;;;;;;;7.13;4.22;;;13.40;99.90;;;;;;5072339;28;20037;-74
2022/06/03 03:10:03;;;;;;;8.13;4.45;;;13.30;99.90;;;;;;5072871;28;20074;-73
2022/06/03 03:13:14;;;;;;;8.20;4.18;;;13.30;99.90;;;;;;5072179;28;20025;-75
2022/06/03 03:16:16;;;;;;;6.38;4.55;;;13.30;99.90;;;;;;5055125;28;20047;-74
2022/06/03 03:19:12;;;;;;;5.82;4.22;;;13.30;99.90;;;;;;5068069;28;20048;-74
2022/06/03 03:22:14;;;;;;;4.53;3.60;;;13.30;99.90;;;;;;5072058;28;20036;-75
2022/06/03 03:25:08;;;;;;;9.25;4.00;;;13.20;99.90;;;;;;5053937;28;20392;-74
2022/06/03 03:27:52;;;;;;;8.00;4.25;;;13.20;99.90;;;;;;5071754;28;20020;-74
2022/06/03 03:30:29;;;;;;;7.18;3.92;;;13.20;99.90;;;;;;5071933;28;20020;-73
2022/06/03 03:33:14;;;;;;;8.02;4.30;;;13.20;99.90;;;;;;5058408;28;20039;-74
2022/06/03 03:35:59;;;;;;;;;;;13.10;99.90;;;;;;5054078;28;20021;-74
2022/06/03 03:38:55;;;;;;;5.18;4.13;;;13.20;99.90;;;;;;5072044;28;20352;-74
2022/06/03 03:41:24;;;;;;;;;;;13.10;99.90;;;;;;5071944;28;20165;-75
2022/06/03 03:43:55;;;;;;;6.18;4.25;;;13.00;99.90;;;;;;5070687;28;19913;-75
2022/06/03 03:47:09;;;;;;;5.90;4.25;;;13.00;99.90;;;;;;5064266;28;20029;-74
2022/06/03 03:50:01;;;;;;;6.97;4.38;;;13.10;99.90;;;;;;5014624;28;20041;-74
2022/06/03 03:53:04;;;;;;;8.75;4.30;;;13.00;99.90;;;;;;5023266;28;20612;-73
2022/06/03 03:55:39;;;;;;;8.55;5.13;;;13.00;99.90;;;;;;5023372;28;20033;-74
2022/06/03 03:58:24;;;;;;;7.68;4.47;;;13.00;99.90;;;;;;5030765;28;20029;-74
2022/06/03 04:00:59;;;;;;;6.95;4.55;;;13.00;99.90;;;;;;5021430;28;20033;-75
2022/06/03 04:03:49;;;;;;;6.85;4.30;;;13.00;99.90;;;;;;5023119;28;20033;-74
2022/06/03 04:06:29;;;;;;;9.13;4.57;;;12.90;99.90;;;;;;5026982;28;20049;-75
2022/06/03 04:09:27;;;;;;;5.88;4.35;;;12.90;99.90;;;;;;5027347;28;20038;-74
2022/06/03 04:12:04;;;;;;;8.43;5.03;;;12.90;99.90;;;;;;5025148;28;20573;-73
2022/06/03 04:14:38;;;;;;;7.55;5.07;;;12.90;99.90;;;;;;5028362;28;20045;-74
2022/06/03 04:17:36;;;;;;;7.03;4.63;;;12.90;99.90;;;;;;5027843;28;20042;-74
2022/06/03 04:20:20;;;;;;;7.63;4.90;;;12.90;99.90;;;;;;5010607;28;20041;-74
2022/06/03 04:23:06;;;;;;;10.77;4.93;;;12.90;99.90;;;;;;5027249;28;20033;-74
2022/06/03 04:25:57;;;;;;;7.85;4.60;;;12.90;99.90;;;;;;5040342;28;20040;-74
2022/06/03 04:28:56;;;;;;;9.65;5.18;;;12.90;99.90;;;;;;5044673;28;20051;-74
2022/06/03 04:31:59;;;;;;;8.43;5.10;;;12.90;99.90;;;;;;5067919;28;20091;-74
2022/06/03 04:34:55;;;;;;;6.13;4.78;;;12.90;99.90;;;;;;5070668;28;20027;-74
2022/06/03 04:37:45;;;;;;;7.85;4.90;;;12.90;99.90;;;;;;5070619;28;20035;-74
2022/06/03 04:40:32;;;;;;;7.97;5.00;;;12.90;99.90;;;;;;5070479;28;20048;-75
2022/06/03 04:43:10;;;;;;;9.20;5.40;;;12.90;99.90;;;;;;5064843;28;20032;-74
2022/06/03 04:46:11;;;;;;;9.07;4.70;;;12.90;99.90;;;;;;5070667;28;20032;-74
2022/06/03 04:48:43;;;;;;;9.20;5.25;;;13.00;99.90;;;;;;5070519;28;20427;-75
2022/06/03 04:51:20;;;;;;;7.25;4.85;;;13.00;99.90;;;;;;5049078;28;20491;-73
2022/06/03 04:54:08;;;;;;;8.32;4.82;;;13.00;99.90;;;;;;5062564;28;20096;-74
2022/06/03 04:56:46;;;;;;;7.45;4.53;;;13.00;99.90;;;;;;5056728;28;20518;-74
2022/06/03 04:59:36;;;;;;;8.25;5.00;;;13.00;99.90;;;;;;5050811;28;20032;-73
2022/06/03 05:02:26;;;;;;;10.38;5.13;;;13.10;99.90;;;;;;5058800;28;20108;-74
2022/06/03 05:04:52;;;;;;;7.95;5.03;;;13.10;99.90;;;;;;5057993;28;20513;-74
2022/06/03 05:07:45;;;;;;;7.90;5.18;;;13.10;99.90;;;;;;5055981;28;20052;-73
2022/06/03 05:10:40;;;;;;;8.80;5.20;;;13.20;99.90;;;;;;5048132;28;20579;-75
2022/06/03 05:13:09;;;;;;;8.60;5.35;;;13.20;99.90;;;;;;4953092;28;20444;-75
2022/06/03 05:16:05;;;;;;;7.38;5.13;;;13.20;99.90;;;;;;4963941;28;20165;-74
2022/06/03 05:18:52;;;;;;;7.55;5.20;;;13.30;99.90;;;;;;4963957;28;20078;-75
2022/06/03 05:21:55;;;;;;;8.95;5.38;;;13.30;99.90;;;;;;4964688;28;20031;-74
2022/06/03 05:24:27;;;;;;;9.30;5.55;;;13.40;99.90;;;;;;4962788;28;20675;-74
2022/06/03 05:27:13;;;;;;;9.25;5.60;;;13.40;99.90;;;;;;4963295;28;20039;-73
2022/06/03 05:29:57;;;;;;;8.38;5.05;;;13.40;99.90;;;;;;4958191;28;20035;-73
2022/06/03 05:32:41;;;;;;;9.02;5.32;;;13.50;99.90;;;;;;4967422;28;20039;-73
2022/06/03 05:35:30;;;;;;;8.00;5.60;;;13.50;99.90;;;;;;4956385;28;20081;-73
2022/06/03 05:38:33;;;;;;;6.88;5.70;;;13.60;99.90;;;;;;4965600;28;20482;-72
2022/06/03 05:45:03;;;;;;;8.13;5.40;;;13.60;99.90;;;;;;4907463;29;20044;-73
2022/06/03 05:47:45;;;;;;;10.57;5.90;;;13.70;99.90;;;;;;4892369;29;20037;-73
2022/06/03 05:50:37;;;;;;;9.45;5.55;;;13.70;99.90;;;;;;4943540;28;20047;-73
2022/06/03 05:53:24;;;;;;;10.35;6.00;;;13.80;99.90;;;;;;4963175;28;20043;-73
2022/06/03 05:56:04;;;;;;;7.07;5.32;;;13.80;99.90;;;;;;4964845;28;20059;-74
2022/06/03 05:58:53;;;;;;;10.82;5.40;;;13.90;99.90;;;;;;4982943;28;20042;-74
2022/06/03 06:01:37;;;;;;;9.27;5.50;;;13.90;99.90;;;;;;4990107;28;20046;-73
2022/06/03 06:04:17;;;;;;;7.05;5.47;;;14.00;99.90;;;;;;4974677;28;20031;-74
2022/06/03 06:06:57;;;;;;;8.95;5.50;;;14.00;99.90;;;;;;4991567;28;20031;-75
2022/06/03 06:09:52;;;;;;;9.05;6.15;;;14.00;99.90;;;;;;4991600;28;20036;-74
2022/06/03 06:12:42;;;;;;;7.82;5.55;;;14.10;99.90;;;;;;4991566;28;20092;-75
2022/06/03 06:15:10;;;;;;;10.05;5.53;;;14.20;99.90;;;;;;4991212;28;20038;-74
2022/06/03 06:18:01;;;;;;;9.23;6.35;;;14.20;99.90;;;;;;5018075;28;20109;-75
2022/06/03 06:20:38;;;;;;;10.75;6.18;;;14.30;99.90;;;;;;5073171;28;20040;-74
2022/06/03 06:23:18;;;;;;;7.60;6.30;;;14.40;99.90;;;;;;5073142;28;20032;-73
2022/06/03 06:25:51;;;;;;;8.10;5.57;;;14.40;99.90;;;;;;5068475;28;20044;-72
2022/06/03 06:28:31;;;;;;;6.90;5.60;;;14.40;99.90;;;;;;5062174;28;20017;-74
2022/06/03 06:31:08;;;;;;;8.13;5.93;;;14.50;99.90;;;;;;5058629;28;20370;-73
2022/06/03 06:34:04;;;;;;;9.15;5.80;;;14.60;99.90;;;;;;5065630;28;20032;-73
2022/06/03 06:37:07;;;;;;;9.70;6.22;;;14.70;99.90;;;;;;5071794;28;20028;-73
2022/06/03 06:39:45;;;;;;;10.57;6.03;;;14.90;99.90;;;;;;5066865;28;20036;-74
2022/06/03 06:42:46;;;;;;;9.70;6.18;;;14.90;99.90;;;;;;5066471;28;20063;-74
2022/06/03 06:45:34;;;;;;;7.47;5.82;;;15.10;99.90;;;;;;5070924;28;20040;-74
2022/06/03 06:48:39;;;;;;;10.35;6.30;;;15.20;99.90;;;;;;5072857;28;20032;-74
2022/06/03 06:51:33;;;;;;;9.25;5.70;;;15.40;99.90;;;;;;5051320;28;20016;-74
2022/06/03 06:54:30;;;;;;;7.38;5.85;;;15.50;99.90;;;;;;5059212;28;20544;-74
2022/06/03 06:57:01;;;;;;;8.57;5.97;;;15.70;99.90;;;;;;5031971;28;20395;-75
2022/06/03 06:59:38;;;;;;;8.80;6.15;;;15.80;99.90;;;;;;5072557;28;20024;-74
2022/06/03 07:02:27;;;;;;;11.65;6.25;;;15.90;99.90;;;;;;5072442;28;20032;-74
2022/06/03 07:05:22;;;;;;;9.90;5.82;;;16.10;99.90;;;;;;5072854;28;20039;-74
2022/06/03 07:08:04;;;;;;;6.78;5.53;;;16.20;99.90;;;;;;5072177;28;20016;-74
2022/06/03 07:10:57;;;;;;;8.05;6.07;;;16.30;99.90;;;;;;5072333;28;20115;-73
2022/06/03 07:13:34;;;;;;;7.70;6.18;;;16.50;99.90;;;;;;5054154;28;20024;-73
2022/06/03 07:16:02;;;;;;;8.27;5.43;;;16.60;99.90;;;;;;5072449;28;20467;-74
2022/06/03 07:21:45;;;;;;;7.32;5.50;;;16.90;99.90;;;;;;5072155;28;20035;-73
2022/06/03 07:24:36;;;;;;;9.40;5.65;;;17.10;99.90;;;;;;5071835;28;20050;-71
2022/06/03 07:27:12;;;;;;;8.27;5.47;;;17.30;99.90;;;;;;5071847;28;20463;-72
2022/06/03 07:29:46;;;;;;;12.18;5.43;;;17.50;99.90;;;;;;5071913;28;20445;-71
2022/06/03 07:32:26;;;;;;;8.73;5.37;;;17.60;99.90;;;;;;5071997;28;20048;-73
2022/06/03 07:35:03;;;;;;;9.23;5.40;;;17.80;99.90;;;;;;5071904;28;20027;-72
2022/06/03 07:38:20;;;;;;;9.48;5.78;;;18.00;99.90;;;;;;5071530;28;20557;-72
2022/06/03 07:40:45;;;;;;;;;;;18.20;99.90;;;;;;5027649;28;20108;-73
2022/06/03 07:43:52;;;;;;;6.07;4.50;;;18.30;99.90;;;;;;5016812;28;19992;-73
2022/06/03 07:46:52;;;;;;;6.85;4.95;;;18.60;99.90;;;;;;5028645;28;20462;-73
2022/06/03 07:49:22;;;;;;;7.13;5.40;;;18.80;99.90;;;;;;5012769;28;20386;-72
2022/06/03 07:51:53;;;;;;;7.47;5.10;;;19.00;99.90;;;;;;5009059;28;20485;-72
2022/06/03 07:54:31;;;;;;;7.30;4.60;;;19.20;99.90;;;;;;5010414;28;20133;-72
2022/06/03 07:57:19;;;;;;;9.38;5.00;;;19.30;99.90;;;;;;5023430;28;20049;-73
2022/06/03 07:59:45;;;;;;;8.00;4.97;;;19.40;99.90;;;;;;5008999;28;20030;-73
2022/06/03 08:02:16;;;;;;;8.30;5.28;;;19.50;99.90;;;;;;5014705;28;20500;-73
2022/06/03 08:04:45;;;;;;;8.35;4.63;;;19.60;99.90;;;;;;5015821;28;20026;-73
2022/06/03 08:13:17;;;;;;;11.82;5.13;;;19.90;99.90;;;;;;5015195;28;20517;-73
2022/06/03 08:15:56;;;;;;;7.60;4.95;;;20.00;99.90;;;;;;5031905;28;20028;-74
2022/06/03 08:18:25;;;;;;;7.47;4.95;;;20.10;99.90;;;;;;5061173;28;20527;-80
2022/06/03 08:20:57;;;;;;;9.32;4.70;;;20.20;99.90;;;;;;5073013;28;20013;-80
2022/06/03 08:23:23;;;;;;;7.28;4.97;;;20.40;99.90;;;;;;5074999;28;20028;-81
2022/06/03 08:25:52;;;;;;;6.40;4.70;;;20.50;99.50;;;;;;5076798;28;20024;-80
2022/06/03 08:28:22;;;;;;;8.63;5.40;;;20.70;98.70;;;;;;5079831;28;20020;-77
2022/06/03 08:30:50;;;;;;;6.53;4.53;;;20.80;97.60;;;;;;5080533;28;20031;-79
2022/06/03 08:33:27;;;;;;;6.93;4.70;;;20.90;97.00;;;;;;5077348;28;20074;-78
2022/06/03 08:35:52;;;;;;;8.30;4.70;;;20.90;96.00;;;;;;5077235;28;20126;-77
2022/06/03 08:38:24;;;;;;;6.80;4.70;;;21.00;96.20;;;;;;5058791;28;20116;-78
2022/06/03 08:41:16;;;;;;;5.72;4.40;;;21.20;95.50;;;;;;5065148;28;20373;-79
2022/06/03 08:43:56;;;;;;;6.78;4.25;;;21.30;94.60;;;;;;5050015;28;20546;-78
2022/06/03 08:46:28;;;;;;;7.70;4.60;;;21.40;94.30;;;;;;5056495;28;20032;-79
2022/06/03 08:49:03;;;;;;;6.25;4.47;;;21.50;93.50;;;;;;5070608;28;20021;-76
2022/06/03 08:51:47;;;;;;;7.22;4.55;;;21.60;92.80;;;;;;5070846;28;20040;-79
2022/06/03 08:54:27;;;;;;;6.10;4.18;;;21.70;91.70;;;;;;5052774;28;20028;-79
2022/06/03 08:56:57;;;;;;;8.60;4.45;;;21.70;91.50;;;;;;5068302;28;20017;-78
2022/06/03 08:59:38;;;;;;;8.15;4.38;;;21.80;91.50;;;;;;5061923;28;20021;-79
2022/06/03 09:02:09;;;;;;;6.53;4.43;;;21.90;90.90;;;;;;5052857;28;20085;-78
2022/06/03 09:05:06;;;;;;;9.20;4.70;;;21.90;90.40;;;;;;5070495;28;20067;-79
2022/06/03 09:07:53;;;;;;;6.20;4.45;;;22.00;90.20;;;;;;5047220;28;20388;-79
2022/06/03 09:10:26;;;;;;;7.13;3.95;;;22.10;90.30;;;;;;5070614;28;20103;-78
2022/06/03 09:13:08;;;;;;;8.00;3.78;;;22.20;88.50;;;;;;5070322;28;20036;-77
2022/06/03 09:15:41;;;;;;;8.10;4.25;;;22.40;89.10;;;;;;5070855;28;20110;-79
2022/06/03 09:18:34;;;;;;;7.47;4.55;;;22.60;87.20;;;;;;5070418;28;20044;-79
2022/06/03 09:21:15;;;;;;;6.40;4.25;;;22.70;83.80;;;;;;5070513;28;20017;-78
2022/06/03 09:23:44;;;;;;;4.70;3.72;;;22.70;82.60;;;;;;5055909;28;20116;-77
2022/06/03 09:26:37;;;;;;;8.68;4.50;;;22.80;82.70;;;;;;5066768;28;20399;-77
2022/06/03 09:29:05;;;;;;;6.28;4.40;;;22.80;81.30;;;;;;5070363;28;20052;-77
2022/06/03 09:31:34;;;;;;;5.75;4.20;;;23.00;80.30;;;;;;5073432;28;20013;-77
2022/06/03 09:34:01;;;;;;;5.95;4.05;;;23.10;79.30;;;;;;5055846;28;20546;-77
2022/06/03 09:36:28;;;;;;;5.10;4.10;;;23.30;78.10;;;;;;5074190;28;20051;-77
2022/06/03 09:39:00;;;;;;;6.57;4.75;;;23.40;76.90;;;;;;5074667;28;20024;-80
2022/06/03 09:41:33;;;;;;;6.15;4.30;;;23.50;77.10;;;;;;5044120;28;20028;-79
2022/06/03 09:44:02;;;;;;;10.40;4.32;;;23.50;75.10;;;;;;5060669;28;20016;-79
2022/06/03 09:46:30;;;;;;;6.32;4.20;;;23.50;74.70;;;;;;5058884;28;20047;-81
2022/06/03 09:48:57;;;;;;;6.35;3.88;;;23.60;74.80;;;;;;5078799;28;20021;-82
2022/06/03 09:51:55;;;;;;;5.82;4.10;;;23.70;74.70;;;;;;5077302;28;20027;-77
2022/06/03 09:54:32;;;;;;;6.30;3.70;;;23.90;73.30;;;;;;5068219;28;20213;-81
2022/06/03 09:57:21;;;;;;;7.70;4.43;;;24.00;74.10;;;;;;5056289;28;20039;-81
2022/06/03 10:00:08;;;;;;;6.28;4.15;;;24.20;71.30;;;;;;5072496;28;20092;-81
2022/06/03 10:02:35;;;;;;;7.50;4.40;;;24.30;71.20;;;;;;5077902;28;20021;-82
2022/06/03 10:05:03;;;;;;;8.10;4.30;;;24.40;70.90;;;;;;5074341;28;20051;-81
2022/06/03 10:07:29;;;;;;;6.03;3.58;;;24.60;70.20;;;;;;5077351;28;20028;-81
2022/06/03 10:12:50;;;;;;;5.20;3.20;;;24.70;67.70;;;;;;5071550;28;20035;-80
2022/06/03 10:15:38;;;;;;;5.90;3.00;;;24.70;66.10;;;;;;5073325;28;20654;-76
2022/06/03 10:18:21;;;;;;;6.07;3.10;;;24.70;65.90;;;;;;5073259;28;20751;-79
2022/06/03 10:20:50;;;;;;;3.22;2.78;;;24.80;65.80;;;;;;5049756;28;20047;-80
2022/06/03 10:23:20;;;;;;;7.13;3.30;;;24.90;64.50;;;;;;5073814;28;20025;-78
2022/06/03 10:25:49;;;;;;;3.15;2.70;;;24.90;64.10;;;;;;5074255;28;20032;-77
2022/06/03 10:28:16;;;;;;;3.13;2.67;;;24.90;62.40;;;;;;5073866;28;20024;-77
2022/06/03 10:30:43;;;;;;;3.90;2.92;;;24.90;61.90;;;;;;5074540;28;20064;-79
2022/06/03 10:33:20;;;;;;;5.20;3.00;;;24.90;61.50;;;;;;5073980;28;20357;-79
2022/06/03 10:35:48;;;;;;;7.15;3.05;;;25.00;61.30;;;;;;5073969;28;20373;-79
2022/06/03 10:38:20;;;;;;;5.35;3.17;;;25.10;60.50;;;;;;5066772;28;20029;-77
2022/06/03 10:40:52;;;;;;;5.03;2.70;;;25.20;60.20;;;;;;5062217;28;20048;-79
2022/06/03 10:43:24;;;;;;;3.78;2.80;;;25.20;59.20;;;;;;5064811;28;20025;-79
2022/06/03 10:45:50;;;;;;;4.65;2.70;;;25.20;59.10;;;;;;5074243;28;20464;-80
2022/06/03 10:48:24;;;;;;;4.68;2.20;;;25.30;59.20;;;;;;5073925;28;20031;-78
2022/06/03 10:50:50;;;;;;;3.40;2.47;;;25.40;59.20;;;;;;5073361;28;20091;-79
2022/06/03 11:01:06;;;;;;;5.93;2.85;;;25.60;58.20;;;;;;5071784;28;20031;-79
2022/06/03 11:01:57;;;;;;;4.32;3.13;;;25.60;58.00;;;;;;5063746;28;20027;-78
2022/06/03 11:04:39;;;;;;;6.45;3.08;;;25.60;57.60;;;;;;5058023;28;20029;-78
2022/06/03 11:07:33;;;;;;;5.07;2.80;;;25.60;57.10;;;;;;5053205;28;20039;-74
2022/06/03 11:10:13;;;;;;;4.60;2.72;;;25.70;57.20;;;;;;5042680;28;20557;-74
2022/06/03 11:12:39;;;;;;;5.00;3.15;;;25.80;57.60;;;;;;5072200;28;20074;-74
2022/06/03 11:15:31;;;;;;;6.43;3.22;;;25.80;56.90;;;;;;5072017;28;20016;-74
2022/06/03 11:17:59;;;;;;;6.07;3.08;;;25.90;56.30;;;;;;5072041;28;20024;-74
2022/06/03 11:20:38;;;;;;;5.68;2.88;;;25.90;56.00;;;;;;5050394;28;20025;-75
2022/06/03 11:23:07;;;;;;;4.53;2.80;;;25.90;56.10;;;;;;5072589;28;20028;-75
2022/06/03 11:25:35;;;;;;;4.28;3.10;;;25.90;56.10;;;;;;5068566;28;20012;-74
2022/06/03 11:28:16;;;;;;;3.33;2.63;;;25.90;55.00;;;;;;5072319;28;20544;-74
2022/06/03 11:31:00;;;;;;;3.85;2.90;;;25.80;55.20;;;;;;5047520;28;20504;-75
2022/06/03 11:33:32;;;;;;;8.52;2.97;;;25.90;55.30;;;;;;5072178;28;20029;-75
2022/06/03 11:36:02;;;;;;;3.05;2.75;;;26.00;55.50;;;;;;5072014;28;20461;-74
2022/06/03 11:38:49;;;;;;;5.35;2.80;;;26.10;55.70;;;;;;5071889;28;20388;-75
2022/06/03 11:41:20;;;;;;;5.47;2.60;;;26.20;55.30;;;;;;5071809;28;20029;-75
2022/06/03 11:43:59;;;;;;;4.43;2.90;;;26.20;55.60;;;;;;5071759;28;20031;-75
2022/06/03 11:46:35;;;;;;;4.00;2.95;;;26.40;55.40;;;;;;5061913;28;20043;-74
2022/06/03 11:49:00;;;;;;;5.72;2.90;;;26.40;54.30;;;;;;5071434;28;20024;-75
2022/06/03 11:51:26;;;;;;;4.63;2.60;;;26.40;54.60;;;;;;5067802;28;20472;-74
2022/06/03 11:53:52;;;;;;;5.13;3.00;;;26.50;54.50;;;;;;5070677;28;20029;-75
2022/06/03 11:56:23;;;;;;;5.45;2.40;;;26.50;54.10;;;;;;5071558;28;20112;-75
2022/06/03 11:59:01;;;;;;;4.72;2.78;;;26.60;53.70;;;;;;5071326;28;20024;-75
2022/06/03 12:01:35;;;;;;;4.03;2.60;;;26.80;53.50;;;;;;5071543;28;20116;-75
2022/06/03 12:04:14;;;;;;;3.92;2.50;;;26.80;53.00;;;;;;5071229;28;20145;-74
2022/06/03 12:07:01;;;;;;;3.28;2.50;;;26.90;52.70;;;;;;5071177;28;20024;-75
2022/06/03 12:09:37;;;;;;;6.00;2.20;;;27.00;51.70;;;;;;5071674;28;20028;-75
2022/06/03 12:15:31;;;;;;;3.33;2.08;;;27.20;51.60;;;;;;5072093;28;20031;-75
2022/06/03 12:18:32;;;;;;;5.45;2.30;;;27.30;51.40;;;;;;5070841;28;20073;-75
2022/06/03 12:21:00;;;;;;;5.15;2.72;;;27.50;51.20;;;;;;5070912;28;20054;-74
2022/06/03 12:23:26;;;;;;;3.90;2.40;;;27.60;51.00;;;;;;5070807;28;20081;-74
2022/06/03 12:25:51;;;;;;;2.78;1.80;;;27.60;49.70;;;;;;5071170;28;20028;-74
2022/06/03 12:28:20;;;;;;;4.50;2.10;;;27.50;49.20;;;;;;5070589;28;20119;-74
2022/06/03 12:31:01;;;;;;;3.95;2.00;;;27.50;48.60;;;;;;5070712;28;20345;-74
2022/06/03 12:33:27;;;;;;;3.55;1.90;;;27.50;48.50;;;;;;5070463;28;20055;-73
2022/06/03 12:36:04;;;;;;;2.65;1.50;;;27.50;48.30;;;;;;5070355;28;20063;-74
2022/06/03 12:38:39;;;;;;;4.05;1.60;;;27.50;48.10;;;;;;5070912;28;20029;-83
2022/06/03 12:41:05;;;;;;;;;;;27.50;47.70;;;;;;5071423;28;20056;-83
2022/06/03 12:43:51;;;;;;;2.13;1.65;;;27.50;47.60;;;;;;5072499;28;19908;-83
2022/06/03 12:46:35;;;;;;;2.78;1.73;;;27.50;47.80;;;;;;5072048;28;20044;-80
2022/06/03 12:49:00;;;;;;;2.65;1.63;;;27.60;47.80;;;;;;5039198;28;20138;-80
2022/06/03 12:51:28;;;;;;;4.25;2.13;;;27.70;47.70;;;;;;5070644;28;20021;-80
2022/06/03 12:54:14;;;;;;;3.40;1.70;;;27.70;47.50;;;;;;5052544;28;20028;-80
2022/06/03 12:56:45;;;;;;;;;;;27.70;47.50;;;;;;5071418;28;20028;-79
2022/06/03 12:59:31;;;;;;;2.42;2.00;;;27.60;47.40;;;;;;5071041;28;19982;-73
2022/06/03 13:02:22;;;;;;;2.15;1.90;;;27.70;47.20;;;;;;5043162;28;20029;-78
2022/06/03 13:04:54;;;;;;;2.45;1.85;;;27.70;46.70;;;;;;5071830;28;20036;-75
2022/06/03 13:07:26;;;;;;;3.10;1.90;;;27.60;46.60;;;;;;5058034;28;20095;-79
2022/06/03 13:09:56;;;;;;;2.63;1.75;;;27.50;46.80;;;;;;5071764;28;20020;-80
2022/06/03 13:12:33;;;;;;;3.45;2.00;;;27.50;46.90;;;;;;5054512;28;20380;-81
2022/06/03 13:15:17;;;;;;;4.10;2.00;;;27.60;46.30;;;;;;5072919;28;20029;-79
2022/06/03 13:20:44;;;;;;;2.60;1.92;;;27.60;46.40;;;;;;5071003;28;20434;-80
2022/06/03 13:23:19;;;;;;;4.68;1.92;;;27.70;46.70;;;;;;5071140;28;20052;-78
2022/06/03 13:25:45;;;;;;;3.97;2.10;;;27.70;46.50;;;;;;5071622;28;20075;-78
2022/06/03 13:28:34;;;;;;;4.20;1.67;;;27.70;46.90;;;;;;5072091;28;20079;-79
2022/06/03 13:31:10;;;;;;;3.38;2.05;;;27.90;47.60;;;;;;5072198;28;20039;-80
2022/06/03 13:34:08;;;;;;;2.90;2.10;;;28.00;47.50;;;;;;5072744;28;20549;-73
2022/06/03 13:36:39;;;;;;;4.53;2.17;;;28.10;47.50;;;;;;5071831;28;20032;-73
2022/06/03 13:39:13;;;;;;;3.15;2.20;;;28.10;47.30;;;;;;5070680;28;20016;-74
2022/06/03 13:44:48;;;;;;;5.30;2.17;;;28.00;46.60;;;;;;5075888;28;20051;-77
2022/06/03 13:47:25;;;;;;;3.72;2.17;;;28.00;47.10;;;;;;5054287;28;20101;-72
2022/06/03 13:49:56;;;;;;;5.15;2.20;;;28.00;47.10;;;;;;5073992;28;20469;-77
2022/06/03 13:52:31;;;;;;;5.60;2.30;;;27.90;47.30;;;;;;5075939;28;20058;-78
2022/06/03 13:55:24;;;;;;;4.15;1.90;;;27.90;47.40;;;;;;5064345;28;20029;-77
2022/06/03 13:57:54;;;;;;;4.80;2.00;;;27.90;47.40;;;;;;5073338;28;20029;-76
2022/06/03 14:00:36;;;;;;;2.47;2.10;;;27.90;47.10;;;;;;5071864;28;20380;-77
2022/06/03 14:03:25;;;;;;;3.75;2.40;;;28.00;46.80;;;;;;5066155;28;20032;-77
2022/06/03 14:05:51;;;;;;;3.58;2.10;;;28.00;46.50;;;;;;5068732;28;20060;-77
2022/06/03 14:08:38;;;;;;;7.07;2.10;;;27.90;46.00;;;;;;5070838;28;20092;-78
2022/06/03 14:11:03;;;;;;;2.90;2.28;;;27.70;45.90;;;;;;5069592;28;20111;-79
2022/06/03 14:14:00;;;;;;;1.90;1.70;;;27.60;45.90;;;;;;5069573;28;20104;-79
2022/06/03 14:16:38;;;;;;;2.97;1.67;;;27.50;45.50;;;;;;5062717;28;20052;-79
2022/06/03 14:19:10;;;;;;;1.85;1.73;;;27.50;45.70;;;;;;5072675;28;20045;-78
2022/06/03 14:21:43;;;;;;;3.63;1.88;;;27.40;45.60;;;;;;5055753;28;20075;-78
2022/06/03 14:24:24;;;;;;;3.13;1.60;;;27.30;45.40;;;;;;5073148;28;20024;-78
2022/06/03 14:27:06;;;;;;;4.82;1.90;;;27.20;45.80;;;;;;5072899;28;20118;-79
2022/06/03 14:29:42;;;;;;;1.98;1.77;;;27.20;45.50;;;;;;5070827;28;20575;-77
2022/06/03 14:32:12;;;;;;;2.65;1.83;;;27.10;45.60;;;;;;5071936;28;20511;-77